Time;durP1;ratioP1;P1;durP2;ratioP2;P2;SDS_P1;SDS_P2;PMS_P1;PMS_P2;Temp;Humidity;BMP_temperature;BMP_pressure;BME280_temperature;BME280_humidity;BME280_pressure;Samples;Min_cycle;Max_cycle;Signal;HPM_P1;HPM_P2
2021/09/03 00:01:20;;;;;;;4.63;2.45;;;;;;;;;;5071355;28;20534;-68
2021/09/03 00:03:46;;;;;;;4.53;2.42;;;;;;;;;;5071186;28;20036;-69
2021/09/03 00:06:13;;;;;;;6.72;2.00;;;;;;;;;;5071286;28;20025;-69
2021/09/03 00:08:39;;;;;;;5.78;2.72;;;;;;;;;;5087474;28;20025;-69
2021/09/03 00:11:05;;;;;;;7.53;2.60;;;;;;;;;;5075497;28;20032;-69
2021/09/03 00:13:31;;;;;;;5.35;2.55;;;;;;;;;;5075171;28;20092;-69
2021/09/03 00:15:57;;;;;;;5.78;2.53;;;;;;;;;;5075100;28;20536;-69
2021/09/03 00:18:23;;;;;;;11.88;2.28;;;;;;;;;;5074883;28;20052;-69
2021/09/03 00:20:49;;;;;;;5.93;2.28;;;;;;;;;;5074944;28;20028;-68
2021/09/03 00:23:16;;;;;;;6.90;2.47;;;;;;;;;;5074981;28;20032;-69
2021/09/03 00:25:42;;;;;;;3.97;1.92;;;;;;;;;;5090280;28;20434;-69
2021/09/03 00:28:08;;;;;;;4.50;2.30;;;;;;;;;;5074574;28;20426;-69
2021/09/03 00:30:34;;;;;;;4.15;2.22;;;;;;;;;;5074779;28;20024;-69
2021/09/03 00:33:00;;;;;;;4.25;2.33;;;;;;;;;;5090310;28;20023;-69
2021/09/03 00:35:27;;;;;;;5.43;2.53;;;;;;;;;;5074978;28;20387;-68
2021/09/03 00:37:53;;;;;;;4.25;2.28;;;;;;;;;;5074870;28;20020;-68
2021/09/03 00:40:19;;;;;;;4.00;1.90;;;;;;;;;;5090101;28;20417;-69
2021/09/03 00:42:45;;;;;;;4.97;2.53;;;;;;;;;;5074181;28;20044;-69
2021/09/03 00:45:11;;;;;;;4.30;2.13;;;;;;;;;;5074590;28;20020;-68
2021/09/03 00:47:37;;;;;;;4.68;2.65;;;;;;;;;;5073611;28;20029;-69
2021/09/03 00:50:04;;;;;;;4.65;2.38;;;;;;;;;;5074260;28;20566;-69
2021/09/03 00:52:30;;;;;;;5.32;2.67;;;;;;;;;;5074370;28;20067;-69
2021/09/03 00:55:01;;;;;;;6.72;2.35;;;;;;;;;;5073050;28;20349;-69
2021/09/03 00:57:27;;;;;;;5.38;2.50;;;;;;;;;;5073931;28;20506;-68
2021/09/03 00:59:54;;;;;;;4.38;2.30;;;;;;;;;;5073893;28;20024;-69
2021/09/03 01:02:23;;;;;;;5.03;2.70;;;;;;;;;;5072854;28;20017;-68
2021/09/03 01:04:50;;;;;;;4.38;2.75;;;;;;;;;;5074158;28;20044;-67
2021/09/03 01:07:16;;;;;;;4.00;2.10;;;;;;;;;;5072909;28;20470;-67
2021/09/03 01:09:42;;;;;;;6.25;2.65;;;;;;;;;;5073865;28;20468;-68
2021/09/03 01:12:09;;;;;;;5.13;2.80;;;;;;;;;;5073710;28;20021;-68
2021/09/03 01:14:35;;;;;;;5.13;2.65;;;;;;;;;;5073769;28;20464;-68
2021/09/03 01:17:02;;;;;;;6.25;2.55;;;;;;;;;;5074095;28;20017;-68
2021/09/03 01:19:28;;;;;;;5.07;2.72;;;;;;;;;;5073805;28;20020;-68
2021/09/03 01:21:54;;;;;;;5.72;2.70;;;;;;;;;;5073251;28;20052;-68
2021/09/03 01:24:20;;;;;;;4.88;2.67;;;;;;;;;;5073833;28;20135;-68
2021/09/03 01:26:47;;;;;;;5.00;2.70;;;;;;;;;;5073759;28;20021;-67
2021/09/03 01:29:13;;;;;;;6.40;2.42;;;;;;;;;;5072863;28;20352;-68
2021/09/03 01:31:40;;;;;;;4.97;2.50;;;;;;;;;;5073726;28;20086;-68
2021/09/03 01:34:06;;;;;;;5.85;2.63;;;;;;;;;;5073665;28;20059;-68
2021/09/03 01:36:32;;;;;;;5.38;2.67;;;;;;;;;;5073737;28;20146;-68
2021/09/03 01:38:59;;;;;;;4.78;2.67;;;;;;;;;;5073604;28;20028;-68
2021/09/03 01:41:25;;;;;;;5.95;2.90;;;;;;;;;;5073758;28;20017;-68
2021/09/03 01:43:51;;;;;;;5.07;2.90;;;;;;;;;;5073372;28;20035;-68
2021/09/03 01:46:17;;;;;;;5.45;2.60;;;;;;;;;;5073437;28;20471;-68
2021/09/03 01:48:44;;;;;;;4.85;2.25;;;;;;;;;;5073049;28;20036;-68
2021/09/03 01:51:10;;;;;;;5.82;2.50;;;;;;;;;;5071971;28;20471;-69
2021/09/03 01:53:36;;;;;;;4.70;2.60;;;;;;;;;;5072003;28;20064;-68
2021/09/03 01:56:02;;;;;;;5.30;2.63;;;;;;;;;;5073213;28;20021;-68
2021/09/03 01:58:28;;;;;;;5.13;2.60;;;;;;;;;;5071750;28;20039;-68
2021/09/03 02:00:54;;;;;;;4.40;2.35;;;;;;;;;;5068708;28;20111;-68
2021/09/03 02:03:20;;;;;;;4.60;2.72;;;;;;;;;;5073088;28;20032;-68
2021/09/03 02:05:46;;;;;;;4.13;2.17;;;;;;;;;;5071512;28;20024;-68
2021/09/03 02:08:12;;;;;;;4.80;2.55;;;;;;;;;;5072858;28;20021;-68
2021/09/03 02:10:39;;;;;;;4.05;2.35;;;;;;;;;;5071583;28;20027;-68
2021/09/03 02:13:05;;;;;;;7.10;2.70;;;;;;;;;;5071870;28;20153;-68
2021/09/03 02:15:31;;;;;;;4.85;2.60;;;;;;;;;;5072658;28;20024;-68
2021/09/03 02:17:57;;;;;;;5.30;2.50;;;;;;;;;;5072395;28;20031;-68
2021/09/03 02:20:23;;;;;;;4.93;2.47;;;;;;;;;;5072112;28;20025;-68
2021/09/03 02:22:49;;;;;;;5.45;2.70;;;;;;;;;;5071906;28;20028;-68
2021/09/03 02:25:15;;;;;;;4.60;2.55;;;;;;;;;;5072164;28;20031;-70
2021/09/03 02:27:41;;;;;;;4.28;2.53;;;;;;;;;;5071988;28;20096;-70
2021/09/03 02:30:08;;;;;;;5.03;2.80;;;;;;;;;;5071757;28;20498;-70
2021/09/03 02:32:34;;;;;;;5.22;2.78;;;;;;;;;;5069565;28;20044;-70
2021/09/03 02:35:00;;;;;;;5.85;2.65;;;;;;;;;;5071696;28;20017;-68
2021/09/03 02:37:26;;;;;;;4.80;2.22;;;;;;;;;;5071874;28;20028;-69
2021/09/03 02:39:52;;;;;;;6.43;2.80;;;;;;;;;;5071916;28;20140;-69
2021/09/03 02:42:18;;;;;;;6.70;2.70;;;;;;;;;;5072488;28;20101;-70
2021/09/03 02:44:44;;;;;;;6.25;2.80;;;;;;;;;;5072222;28;20036;-69
2021/09/03 02:47:10;;;;;;;5.53;2.50;;;;;;;;;;5072429;28;20108;-68
2021/09/03 02:49:38;;;;;;;4.72;2.58;;;;;;;;;;5072551;28;20025;-68
2021/09/03 02:52:05;;;;;;;5.50;2.83;;;;;;;;;;5072548;28;20024;-68
2021/09/03 02:54:31;;;;;;;4.88;2.65;;;;;;;;;;5072204;28;20021;-69
2021/09/03 02:56:57;;;;;;;4.90;2.70;;;;;;;;;;5072279;28;20087;-68
2021/09/03 02:59:23;;;;;;;4.55;2.50;;;;;;;;;;5072133;28;20056;-68
2021/09/03 03:01:49;;;;;;;5.78;3.20;;;;;;;;;;5072186;28;20152;-68
2021/09/03 03:04:15;;;;;;;4.80;2.72;;;;;;;;;;5072144;28;20037;-69
2021/09/03 03:06:41;;;;;;;4.50;2.67;;;;;;;;;;5072051;28;20024;-68
2021/09/03 03:09:07;;;;;;;5.95;2.70;;;;;;;;;;5072149;28;20021;-68
2021/09/03 03:11:34;;;;;;;4.20;2.40;;;;;;;;;;5072014;28;20048;-68
2021/09/03 03:14:14;;;;;;;5.47;2.42;;;;;;;;;;5072220;28;20024;-68
2021/09/03 03:16:40;;;;;;;5.85;2.45;;;;;;;;;;5072061;28;20024;-68
2021/09/03 03:19:06;;;;;;;4.78;2.65;;;;;;;;;;5072145;28;20020;-69
2021/09/03 03:21:32;;;;;;;5.70;3.00;;;;;;;;;;5069564;28;20036;-69
2021/09/03 03:23:58;;;;;;;6.13;2.47;;;;;;;;;;5071279;28;20127;-69
2021/09/03 03:26:24;;;;;;;4.97;2.85;;;;;;;;;;5069828;28;20120;-68
2021/09/03 03:28:50;;;;;;;5.10;2.65;;;;;;;;;;5071838;28;20016;-69
2021/09/03 03:31:16;;;;;;;4.70;2.33;;;;;;;;;;5071841;28;20024;-68
2021/09/03 03:33:42;;;;;;;4.95;2.83;;;;;;;;;;5071684;28;20490;-68
2021/09/03 03:36:08;;;;;;;5.88;3.17;;;;;;;;;;5070855;28;20384;-68
2021/09/03 03:38:34;;;;;;;5.20;2.70;;;;;;;;;;5071980;28;20100;-68
2021/09/03 03:41:00;;;;;;;5.25;2.53;;;;;;;;;;5071688;28;20020;-68
2021/09/03 03:43:26;;;;;;;4.65;2.47;;;;;;;;;;5072065;28;20037;-67
2021/09/03 03:45:53;;;;;;;4.68;2.38;;;;;;;;;;5075696;28;20021;-68
2021/09/03 03:48:19;;;;;;;4.43;2.72;;;;;;;;;;5075544;28;20097;-68
2021/09/03 03:50:45;;;;;;;5.20;2.63;;;;;;;;;;5075577;28;20086;-67
2021/09/03 03:53:11;;;;;;;5.03;2.65;;;;;;;;;;5075497;28;20024;-68
2021/09/03 03:55:38;;;;;;;5.05;2.50;;;;;;;;;;5074219;28;20021;-68
2021/09/03 03:58:04;;;;;;;4.38;2.35;;;;;;;;;;5074245;28;20481;-68
2021/09/03 04:00:30;;;;;;;4.57;2.70;;;;;;;;;;5075292;28;20024;-70
2021/09/03 04:02:56;;;;;;;9.93;2.65;;;;;;;;;;5073876;28;20036;-68
2021/09/03 04:05:22;;;;;;;5.53;2.40;;;;;;;;;;5075335;28;20043;-69
2021/09/03 04:07:48;;;;;;;6.25;2.85;;;;;;;;;;5075233;28;20021;-68
2021/09/03 04:10:14;;;;;;;5.05;2.45;;;;;;;;;;5073931;28;20017;-69
2021/09/03 04:12:40;;;;;;;6.95;2.50;;;;;;;;;;5075868;28;20537;-68
2021/09/03 04:15:06;;;;;;;5.95;2.90;;;;;;;;;;5075330;28;20479;-69
2021/09/03 04:17:32;;;;;;;6.65;2.75;;;;;;;;;;5075049;28;20020;-68
2021/09/03 04:19:58;;;;;;;4.97;2.58;;;;;;;;;;5075022;28;20036;-67
2021/09/03 04:22:24;;;;;;;5.65;2.47;;;;;;;;;;5074941;28;20035;-69
2021/09/03 04:24:50;;;;;;;9.82;2.92;;;;;;;;;;5074860;28;20056;-68
2021/09/03 04:27:17;;;;;;;8.05;2.85;;;;;;;;;;5074956;28;20023;-68
2021/09/03 04:29:43;;;;;;;8.90;3.08;;;;;;;;;;5074564;28;20025;-68
2021/09/03 04:32:09;;;;;;;5.15;2.67;;;;;;;;;;5074976;28;20048;-68
2021/09/03 04:34:35;;;;;;;12.05;2.80;;;;;;;;;;5074736;28;20028;-69
2021/09/03 04:37:01;;;;;;;9.23;2.40;;;;;;;;;;5069941;28;20033;-70
2021/09/03 04:39:27;;;;;;;7.60;2.78;;;;;;;;;;5074460;28;20051;-69
2021/09/03 04:41:53;;;;;;;5.75;2.25;;;;;;;;;;5071312;28;20028;-69
2021/09/03 04:44:19;;;;;;;7.68;2.88;;;;;;;;;;5073605;28;20064;-73
2021/09/03 04:46:45;;;;;;;10.77;2.70;;;;;;;;;;5073098;28;20024;-68
2021/09/03 04:49:11;;;;;;;21.30;3.78;;;;;;;;;;5074466;28;20052;-68
2021/09/03 04:51:37;;;;;;;7.32;2.65;;;;;;;;;;5067879;28;20024;-68
2021/09/03 04:54:03;;;;;;;8.00;3.55;;;;;;;;;;5073351;28;20640;-69
2021/09/03 04:56:29;;;;;;;9.15;3.30;;;;;;;;;;5101591;28;20593;-68
2021/09/03 04:58:55;;;;;;;10.48;3.15;;;;;;;;;;5087301;28;20112;-69
2021/09/03 05:01:22;;;;;;;11.57;3.45;;;;;;;;;;5094213;28;20414;-68
2021/09/03 05:03:49;;;;;;;10.30;3.30;;;;;;;;;;5074615;28;20502;-68
2021/09/03 05:06:16;;;;;;;11.13;2.83;;;;;;;;;;5063164;28;20107;-68
2021/09/03 05:08:42;;;;;;;9.73;3.30;;;;;;;;;;5073842;28;20028;-68
2021/09/03 05:11:08;;;;;;;11.98;3.67;;;;;;;;;;5073917;28;20009;-67
2021/09/03 05:13:34;;;;;;;15.88;3.55;;;;;;;;;;5073795;28;20454;-68
2021/09/03 05:16:00;;;;;;;9.18;3.35;;;;;;;;;;5073351;28;20379;-68
2021/09/03 05:18:26;;;;;;;7.50;3.05;;;;;;;;;;5073385;28;20020;-68
2021/09/03 05:20:52;;;;;;;11.52;3.20;;;;;;;;;;5063733;28;20021;-67
2021/09/03 05:23:18;;;;;;;9.32;3.05;;;;;;;;;;5071890;28;20032;-68
2021/09/03 05:25:44;;;;;;;12.50;3.00;;;;;;;;;;5072998;28;20052;-67
2021/09/03 05:28:10;;;;;;;9.65;3.25;;;;;;;;;;5073107;28;20028;-68
2021/09/03 05:30:37;;;;;;;7.82;3.05;;;;;;;;;;5073051;28;20021;-68
2021/09/03 05:33:03;;;;;;;7.32;3.00;;;;;;;;;;5073130;28;20143;-67
2021/09/03 05:35:29;;;;;;;9.68;3.80;;;;;;;;;;5072823;28;20096;-68
2021/09/03 05:37:55;;;;;;;8.43;3.63;;;;;;;;;;5072873;28;20013;-68
2021/09/03 05:40:22;;;;;;;11.20;3.38;;;;;;;;;;5061329;28;20487;-68
2021/09/03 05:42:48;;;;;;;11.00;3.50;;;;;;;;;;5067989;28;20103;-67
2021/09/03 05:45:14;;;;;;;13.40;3.22;;;;;;;;;;5072018;28;20040;-68
2021/09/03 05:47:47;;;;;;;9.88;3.28;;;;;;;;;;5073373;28;20513;-68
2021/09/03 05:50:14;;;;;;;6.28;3.13;;;;;;;;;;5072646;28;20032;-68
2021/09/03 05:52:40;;;;;;;9.88;3.30;;;;;;;;;;5073473;28;20036;-68
2021/09/03 05:55:06;;;;;;;10.90;3.58;;;;;;;;;;5074198;28;20020;-68
2021/09/03 05:57:32;;;;;;;9.80;3.30;;;;;;;;;;5073131;28;20044;-67
2021/09/03 05:59:59;;;;;;;8.98;2.95;;;;;;;;;;5072682;28;20031;-67
2021/09/03 06:02:25;;;;;;;8.15;3.40;;;;;;;;;;5071623;28;20024;-67
2021/09/03 06:04:51;;;;;;;8.85;3.17;;;;;;;;;;5071750;28;20407;-68
2021/09/03 06:07:18;;;;;;;12.23;3.40;;;;;;;;;;5072456;28;20017;-68
2021/09/03 06:09:44;;;;;;;7.20;3.25;;;;;;;;;;5072631;28;20106;-68
2021/09/03 06:12:10;;;;;;;10.27;3.50;;;;;;;;;;5072728;28;20024;-68
2021/09/03 06:14:36;;;;;;;8.27;3.20;;;;;;;;;;5071340;28;20480;-68
2021/09/03 06:17:02;;;;;;;6.82;3.28;;;;;;;;;;5073120;28;20035;-68
2021/09/03 06:19:28;;;;;;;7.05;2.95;;;;;;;;;;5071686;28;20063;-68
2021/09/03 06:21:56;;;;;;;8.40;2.97;;;;;;;;;;5072767;28;20027;-68
2021/09/03 06:24:41;;;;;;;8.70;3.10;;;;;;;;;;5072619;28;20090;-68
2021/09/03 06:27:08;;;;;;;5.93;3.10;;;;;;;;;;5072586;28;20020;-68
2021/09/03 06:29:39;;;;;;;8.10;3.30;;;;;;;;;;5072373;28;20025;-68
2021/09/03 06:32:05;;;;;;;8.98;3.28;;;;;;;;;;5072193;28;20024;-68
2021/09/03 06:34:31;;;;;;;6.53;3.00;;;;;;;;;;5072460;28;20556;-68
2021/09/03 06:36:57;;;;;;;9.07;3.20;;;;;;;;;;5071120;28;20395;-68
2021/09/03 06:39:23;;;;;;;7.05;3.20;;;;;;;;;;5072376;28;20028;-68
2021/09/03 06:41:49;;;;;;;10.93;3.33;;;;;;;;;;5072363;28;20025;-68
2021/09/03 06:44:15;;;;;;;6.75;3.28;;;;;;;;;;5072085;28;20043;-68
2021/09/03 06:46:41;;;;;;;9.35;3.72;;;;;;;;;;5072125;28;20025;-68
2021/09/03 06:49:07;;;;;;;6.78;3.20;;;;;;;;;;5071751;28;20024;-69
2021/09/03 06:51:33;;;;;;;9.80;3.38;;;;;;;;;;5072107;28;20558;-68
2021/09/03 06:53:59;;;;;;;7.95;3.17;;;;;;;;;;5072243;28;20460;-68
2021/09/03 06:56:25;;;;;;;6.65;3.50;;;;;;;;;;5072233;28;20043;-68
2021/09/03 06:58:51;;;;;;;7.45;3.10;;;;;;;;;;5072129;28;20036;-68
2021/09/03 07:01:17;;;;;;;7.25;3.10;;;;;;;;;;5070532;28;20070;-69
2021/09/03 07:03:45;;;;;;;14.48;3.45;;;;;;;;;;5070521;28;20205;-69
2021/09/03 07:06:11;;;;;;;7.88;3.42;;;;;;;;;;5070612;28;20472;-68
2021/09/03 07:08:37;;;;;;;8.13;3.17;;;;;;;;;;5071881;28;20481;-68
2021/09/03 07:11:03;;;;;;;6.72;3.20;;;;;;;;;;5071944;28;20027;-68
2021/09/03 07:13:30;;;;;;;7.45;3.63;;;;;;;;;;5071830;28;20051;-68
2021/09/03 07:15:56;;;;;;;7.00;3.20;;;;;;;;;;5070547;28;20020;-67
2021/09/03 07:18:22;;;;;;;8.10;3.97;;;;;;;;;;5071266;28;20063;-67
2021/09/03 07:20:48;;;;;;;6.55;3.70;;;;;;;;;;5070665;28;20020;-67
2021/09/03 07:23:14;;;;;;;7.40;3.03;;;;;;;;;;5071904;28;20040;-68
2021/09/03 07:25:40;;;;;;;6.40;3.78;;;;;;;;;;5071789;28;20021;-68
2021/09/03 07:28:06;;;;;;;7.63;3.45;;;;;;;;;;5071889;28;20076;-68
2021/09/03 07:30:32;;;;;;;7.95;3.72;;;;;;;;;;5071934;28;20024;-67
2021/09/03 07:32:58;;;;;;;8.68;4.07;;;;;;;;;;5071763;28;20016;-68
2021/09/03 07:35:24;;;;;;;6.80;3.70;;;;;;;;;;5071827;28;20107;-68
2021/09/03 07:37:51;;;;;;;7.95;3.38;;;;;;;;;;5071700;28;20399;-68
2021/09/03 07:40:18;;;;;;;9.00;3.83;;;;;;;;;;5071929;28;20078;-68
2021/09/03 07:42:44;;;;;;;8.35;3.30;;;;;;;;;;5071352;28;20108;-68
2021/09/03 07:45:10;;;;;;;7.57;3.38;;;;;;;;;;5071598;28;20032;-68
2021/09/03 07:47:37;;;;;;;6.10;3.25;;;;;;;;;;5070201;28;20763;-68
2021/09/03 07:50:04;;;;;;;10.50;3.67;;;;;;;;;;5071593;28;20029;-68
2021/09/03 07:52:30;;;;;;;8.48;3.45;;;;;;;;;;5071442;28;20021;-68
2021/09/03 07:54:56;;;;;;;7.47;3.13;;;;;;;;;;5071560;28;20025;-67
2021/09/03 07:57:22;;;;;;;7.82;3.13;;;;;;;;;;5071228;28;20055;-67
2021/09/03 07:59:48;;;;;;;10.20;3.45;;;;;;;;;;5071621;28;20052;-68
2021/09/03 08:02:14;;;;;;;7.22;3.03;;;;;;;;;;5071583;28;20020;-68
2021/09/03 08:04:40;;;;;;;6.63;3.20;;;;;;;;;;5071271;28;20032;-68
2021/09/03 08:07:06;;;;;;;7.32;3.20;;;;;;;;;;5071490;28;20074;-67
2021/09/03 08:09:32;;;;;;;6.45;3.22;;;;;;;;;;5071352;28;20048;-68
2021/09/03 08:11:58;;;;;;;8.73;3.45;;;;;;;;;;5071434;28;20039;-68
2021/09/03 08:14:24;;;;;;;5.43;2.83;;;;;;;;;;5071548;28;20024;-70
2021/09/03 08:16:50;;;;;;;8.38;2.85;;;;;;;;;;5071200;28;20494;-68
2021/09/03 08:19:16;;;;;;;5.30;2.70;;;;;;;;;;5070919;28;20051;-68
2021/09/03 08:21:43;;;;;;;6.32;3.15;;;;;;;;;;5056113;28;20025;-68
2021/09/03 08:24:11;;;;;;;5.38;3.00;;;;;;;;;;5066459;28;20104;-67
2021/09/03 08:26:38;;;;;;;5.88;2.88;;;;;;;;;;5071421;28;20375;-66
2021/09/03 08:29:04;;;;;;;4.43;2.42;;;;;;;;;;5071425;28;20100;-66
2021/09/03 08:31:30;;;;;;;6.00;2.75;;;;;;;;;;5072985;28;20055;-67
2021/09/03 08:33:56;;;;;;;5.15;2.70;;;;;;;;;;5074891;28;20408;-67
2021/09/03 08:36:22;;;;;;;6.38;3.38;;;;;;;;;;5075010;28;20017;-67
2021/09/03 08:38:49;;;;;;;5.95;2.88;;;;;;;;;;5074797;28;20537;-67
2021/09/03 08:41:21;;;;;;;5.85;2.63;;;;;;;;;;5074697;28;20025;-67
2021/09/03 08:43:47;;;;;;;6.30;2.78;;;;;;;;;;5073151;28;20035;-67
2021/09/03 08:46:14;;;;;;;7.00;2.88;;;;;;;;;;5074630;28;20440;-67
2021/09/03 08:48:40;;;;;;;8.55;3.35;;;;;;;;;;5069750;28;20025;-67
2021/09/03 08:51:06;;;;;;;6.30;2.55;;;;;;;;;;5054443;28;20036;-67
2021/09/03 08:53:32;;;;;;;5.93;2.97;;;;;;;;;;5054476;28;20029;-67
2021/09/03 08:55:58;;;;;;;7.45;3.33;;;;;;;;;;5068039;28;20031;-68
2021/09/03 08:58:24;;;;;;;4.85;2.42;;;;;;;;;;5073928;28;20119;-68
2021/09/03 09:01:09;;;;;;;5.05;2.55;;;;;;;;;;5072917;28;20017;-68
2021/09/03 09:03:37;;;;;;;7.40;2.90;;;;;;;;;;5072106;28;20543;-67
2021/09/03 09:06:03;;;;;;;5.80;2.67;;;;;;;;;;5074015;28;20056;-67
2021/09/03 09:08:31;;;;;;;8.00;2.80;;;;;;;;;;5074145;28;20016;-67
2021/09/03 09:10:58;;;;;;;5.47;2.67;;;;;;;;;;5074154;28;20025;-68
2021/09/03 09:13:25;;;;;;;5.25;2.50;;;;;;;;;;5073912;28;20017;-68
2021/09/03 09:16:07;;;;;;;5.30;2.80;;;;;;;;;;5074060;28;20019;-70
2021/09/03 09:18:38;;;;;;;5.30;2.70;;;;;;;;;;5067888;28;20021;-69
2021/09/03 09:21:11;;;;;;;4.57;2.15;;;;;;;;;;5063000;28;20064;-67
2021/09/03 09:23:45;;;;;;;4.38;2.42;;;;;;;;;;5068203;28;20056;-66
2021/09/03 09:26:11;;;;;;;5.03;2.50;;;;;;;;;;5061719;28;20021;-68
2021/09/03 09:28:38;;;;;;;5.63;2.60;;;;;;;;;;5052590;28;20029;-67
2021/09/03 09:31:04;;;;;;;7.20;3.00;;;;;;;;;;5063016;28;20506;-67
2021/09/03 09:33:30;;;;;;;6.97;2.30;;;;;;;;;;5073342;28;20519;-65
2021/09/03 09:35:58;;;;;;;5.68;2.55;;;;;;;;;;5072937;28;20040;-68
2021/09/03 09:38:25;;;;;;;4.53;2.00;;;;;;;;;;5072864;28;20371;-65
2021/09/03 09:40:52;;;;;;;5.07;2.28;;;;;;;;;;5073296;28;20091;-66
2021/09/03 09:43:33;;;;;;;5.25;2.20;;;;;;;;;;5060597;28;20543;-66
2021/09/03 09:46:08;;;;;;;4.40;2.30;;;;;;;;;;5053015;28;20074;-66
2021/09/03 09:48:52;;;;;;;6.22;2.58;;;;;;;;;;5071972;28;20029;-67
2021/09/03 09:51:29;;;;;;;5.55;2.53;;;;;;;;;;5073007;28;20116;-67
2021/09/03 09:54:21;;;;;;;5.32;2.08;;;;;;;;;;5073046;28;20039;-67
2021/09/03 09:56:47;;;;;;;5.20;2.63;;;;;;;;;;5070093;28;20045;-67
2021/09/03 09:59:14;;;;;;;5.05;2.35;;;;;;;;;;5069769;28;20090;-66
2021/09/03 10:01:41;;;;;;;4.03;1.63;;;;;;;;;;5067956;28;20488;-67
2021/09/03 10:04:08;;;;;;;6.13;2.00;;;;;;;;;;5052792;28;20033;-66
2021/09/03 10:06:35;;;;;;;4.32;2.20;;;;;;;;;;5068100;28;20116;-67
2021/09/03 10:09:02;;;;;;;4.97;2.40;;;;;;;;;;5052539;28;20025;-66
2021/09/03 10:11:28;;;;;;;5.68;2.30;;;;;;;;;;5053342;28;20059;-67
2021/09/03 10:13:54;;;;;;;4.50;2.08;;;;;;;;;;5072308;28;20024;-66
2021/09/03 10:16:20;;;;;;;4.38;2.20;;;;;;;;;;5068709;28;20021;-67
2021/09/03 10:18:54;;;;;;;4.53;2.15;;;;;;;;;;5068065;28;20059;-66
2021/09/03 10:21:22;;;;;;;6.03;1.90;;;;;;;;;;5052393;28;20021;-66
2021/09/03 10:23:54;;;;;;;6.43;2.80;;;;;;;;;;5052166;28;20029;-66
2021/09/03 10:26:22;;;;;;;4.15;1.88;;;;;;;;;;5052183;28;20118;-67
2021/09/03 10:28:48;;;;;;;5.25;2.25;;;;;;;;;;5067346;28;20028;-67
2021/09/03 10:31:19;;;;;;;4.05;2.10;;;;;;;;;;5052231;28;20029;-67
2021/09/03 10:33:46;;;;;;;4.80;2.35;;;;;;;;;;5052812;28;20083;-67
2021/09/03 10:36:12;;;;;;;4.93;2.17;;;;;;;;;;5052339;28;20028;-68
2021/09/03 10:38:42;;;;;;;5.53;2.25;;;;;;;;;;5052228;28;20025;-68
2021/09/03 10:41:09;;;;;;;4.43;2.28;;;;;;;;;;5052060;28;20060;-68
2021/09/03 10:43:45;;;;;;;4.22;2.25;;;;;;;;;;5051959;28;20037;-66
2021/09/03 10:46:12;;;;;;;4.47;2.25;;;;;;;;;;5052128;28;20475;-66
2021/09/03 10:48:38;;;;;;;6.10;2.10;;;;;;;;;;5067439;28;20040;-66
2021/09/03 10:51:05;;;;;;;5.47;2.05;;;;;;;;;;5061863;28;20040;-67
2021/09/03 10:53:35;;;;;;;3.70;2.00;;;;;;;;;;5051152;28;20058;-67
2021/09/03 10:56:01;;;;;;;4.65;2.25;;;;;;;;;;5051868;28;20024;-66
2021/09/03 10:58:30;;;;;;;3.85;2.05;;;;;;;;;;5052025;28;20047;-66
2021/09/03 11:03:45;;;;;;;5.07;2.17;;;;;;;;;;5051564;28;20544;-66
2021/09/03 11:06:14;;;;;;;5.20;2.05;;;;;;;;;;5051813;28;20021;-66
2021/09/03 11:08:41;;;;;;;5.85;2.05;;;;;;;;;;5052339;28;20029;-66
2021/09/03 11:11:25;;;;;;;3.85;1.90;;;;;;;;;;5051466;28;20021;-67
2021/09/03 11:13:56;;;;;;;2.92;1.83;;;;;;;;;;5051643;28;20499;-67
2021/09/03 11:16:43;;;;;;;3.83;1.92;;;;;;;;;;5051587;28;20017;-67
2021/09/03 11:19:10;;;;;;;3.80;1.90;;;;;;;;;;5051548;28;20152;-66
2021/09/03 11:21:43;;;;;;;4.43;2.00;;;;;;;;;;5063936;28;20036;-67
2021/09/03 11:24:11;;;;;;;7.60;2.40;;;;;;;;;;5067727;28;20041;-66
2021/09/03 11:26:38;;;;;;;5.43;2.13;;;;;;;;;;5051651;28;20027;-67
2021/09/03 11:29:06;;;;;;;6.38;2.40;;;;;;;;;;5051582;28;20108;-67
2021/09/03 11:31:35;;;;;;;10.13;2.47;;;;;;;;;;5066899;28;20064;-68
2021/09/03 11:34:06;;;;;;;8.38;2.30;;;;;;;;;;5051886;28;20059;-67
2021/09/03 11:36:46;;;;;;;3.92;2.10;;;;;;;;;;5066773;28;20025;-68
2021/09/03 11:39:15;;;;;;;7.53;2.90;;;;;;;;;;5054732;28;20965;-68
2021/09/03 11:41:48;;;;;;;8.27;2.80;;;;;;;;;;5062472;28;20021;-67
2021/09/03 11:44:14;;;;;;;9.88;2.78;;;;;;;;;;5051393;28;20033;-68
2021/09/03 11:46:40;;;;;;;9.65;3.08;;;;;;;;;;5063883;28;20437;-68
2021/09/03 11:49:06;;;;;;;6.70;2.88;;;;;;;;;;5071155;28;20024;-70
2021/09/03 11:51:32;;;;;;;8.30;3.15;;;;;;;;;;5071569;28;20025;-69
2021/09/03 11:54:01;;;;;;;6.40;3.00;;;;;;;;;;5071290;28;20028;-69
2021/09/03 11:56:27;;;;;;;8.27;2.70;;;;;;;;;;5070659;28;20098;-69
2021/09/03 11:58:53;;;;;;;4.90;2.42;;;;;;;;;;5070649;28;20411;-68
2021/09/03 12:01:22;;;;;;;8.68;3.58;;;;;;;;;;5070481;28;20060;-69
2021/09/03 12:03:50;;;;;;;7.10;3.30;;;;;;;;;;5069880;28;20033;-69
2021/09/03 12:06:18;;;;;;;6.88;2.70;;;;;;;;;;5073197;28;20025;-69
2021/09/03 12:08:45;;;;;;;7.72;3.90;;;;;;;;;;5074897;28;20153;-67
2021/09/03 12:11:11;;;;;;;7.38;3.60;;;;;;;;;;5074817;28;20024;-68
2021/09/03 12:13:37;;;;;;;8.40;2.85;;;;;;;;;;5085696;28;20487;-67
2021/09/03 12:16:12;;;;;;;10.60;3.90;;;;;;;;;;5074836;28;20039;-69
2021/09/03 12:18:39;;;;;;;6.32;3.05;;;;;;;;;;5074939;28;20036;-69
2021/09/03 12:21:08;;;;;;;10.10;3.28;;;;;;;;;;5074908;28;20407;-68
2021/09/03 12:23:45;;;;;;;7.57;3.28;;;;;;;;;;5074665;28;20104;-69
2021/09/03 12:26:19;;;;;;;8.98;3.38;;;;;;;;;;5074703;28;20028;-68
2021/09/03 12:28:46;;;;;;;6.13;3.30;;;;;;;;;;5074867;28;20092;-69
2021/09/03 12:31:14;;;;;;;6.63;3.15;;;;;;;;;;5074683;28;20100;-70
2021/09/03 12:33:50;;;;;;;8.15;3.53;;;;;;;;;;5074746;28;20025;-68
2021/09/03 12:36:27;;;;;;;11.35;3.50;;;;;;;;;;5054743;28;20025;-68
2021/09/03 12:38:54;;;;;;;5.60;2.72;;;;;;;;;;5054465;28;20036;-70
2021/09/03 12:41:21;;;;;;;6.50;3.50;;;;;;;;;;5054322;28;20029;-67
2021/09/03 12:43:52;;;;;;;6.75;2.72;;;;;;;;;;5069720;28;20060;-67
2021/09/03 12:46:18;;;;;;;8.25;2.80;;;;;;;;;;5054414;28;20090;-68
2021/09/03 12:48:47;;;;;;;8.55;3.35;;;;;;;;;;5068868;28;20072;-68
2021/09/03 12:51:20;;;;;;;7.30;3.30;;;;;;;;;;5070799;28;20031;-68
2021/09/03 12:53:50;;;;;;;8.40;2.78;;;;;;;;;;5072113;28;20593;-67
2021/09/03 12:56:16;;;;;;;6.35;2.83;;;;;;;;;;5073329;28;20025;-67
2021/09/03 12:58:42;;;;;;;6.38;2.55;;;;;;;;;;5073464;28;20041;-67
2021/09/03 13:01:08;;;;;;;6.28;2.38;;;;;;;;;;5073517;28;20020;-68
2021/09/03 13:03:34;;;;;;;6.43;2.67;;;;;;;;;;5073611;28;20035;-68
2021/09/03 13:06:00;;;;;;;6.75;2.65;;;;;;;;;;5073748;28;20044;-68
2021/09/03 13:08:26;;;;;;;7.13;2.60;;;;;;;;;;5065999;28;20021;-68
2021/09/03 13:10:52;;;;;;;4.97;2.47;;;;;;;;;;5072395;28;20116;-68
2021/09/03 13:13:18;;;;;;;4.40;2.75;;;;;;;;;;5073824;28;20035;-67
2021/09/03 13:15:44;;;;;;;6.32;2.88;;;;;;;;;;5073736;28;20491;-68
2021/09/03 13:18:10;;;;;;;8.75;3.35;;;;;;;;;;5072786;28;20559;-69
2021/09/03 13:20:36;;;;;;;5.47;2.63;;;;;;;;;;5072237;28;20039;-69
2021/09/03 13:23:02;;;;;;;4.93;2.20;;;;;;;;;;5073083;28;20036;-71
2021/09/03 13:25:29;;;;;;;4.95;2.67;;;;;;;;;;5060417;28;20531;-67
2021/09/03 13:27:56;;;;;;;6.07;2.50;;;;;;;;;;5053832;28;20102;-69
2021/09/03 13:30:22;;;;;;;5.05;2.78;;;;;;;;;;5053468;28;20029;-69
2021/09/03 13:32:48;;;;;;;5.43;2.33;;;;;;;;;;5053411;28;20539;-68
2021/09/03 13:35:15;;;;;;;7.03;2.13;;;;;;;;;;5053449;28;20029;-68
2021/09/03 13:37:41;;;;;;;5.18;2.38;;;;;;;;;;5053006;28;20484;-68
2021/09/03 13:40:08;;;;;;;8.90;2.55;;;;;;;;;;5053038;28;20028;-68
2021/09/03 13:42:34;;;;;;;6.95;2.78;;;;;;;;;;5053808;28;20017;-69
2021/09/03 13:45:00;;;;;;;5.05;2.20;;;;;;;;;;5066603;28;20025;-69
2021/09/03 13:47:26;;;;;;;5.22;2.47;;;;;;;;;;5075884;28;20061;-67
2021/09/03 13:49:52;;;;;;;8.70;2.83;;;;;;;;;;5093413;28;20024;-67
2021/09/03 13:52:18;;;;;;;4.70;2.50;;;;;;;;;;5093481;28;20020;-67
2021/09/03 13:54:44;;;;;;;8.90;2.83;;;;;;;;;;5093405;28;20031;-67
2021/09/03 13:57:11;;;;;;;11.35;2.40;;;;;;;;;;5092960;28;20067;-68
2021/09/03 13:59:38;;;;;;;8.05;2.40;;;;;;;;;;5093355;28;20508;-66
2021/09/03 14:02:04;;;;;;;5.00;2.53;;;;;;;;;;5080088;28;20059;-66
2021/09/03 14:04:30;;;;;;;11.23;3.10;;;;;;;;;;5086751;28;20499;-71
2021/09/03 14:06:56;;;;;;;10.00;2.70;;;;;;;;;;5052969;28;20480;-66
2021/09/03 14:09:25;;;;;;;10.38;3.00;;;;;;;;;;5052924;28;20036;-72
2021/09/03 14:11:52;;;;;;;9.32;3.05;;;;;;;;;;5052386;28;20048;-66
2021/09/03 14:14:19;;;;;;;7.10;3.22;;;;;;;;;;5051146;28;20021;-66
2021/09/03 14:16:45;;;;;;;8.93;2.40;;;;;;;;;;5052097;28;20025;-66
2021/09/03 14:19:12;;;;;;;8.20;2.88;;;;;;;;;;5052390;28;20113;-69
2021/09/03 14:21:38;;;;;;;6.82;2.50;;;;;;;;;;5067439;28;20455;-67
2021/09/03 14:24:04;;;;;;;5.25;2.30;;;;;;;;;;5067631;28;20040;-67
2021/09/03 14:26:30;;;;;;;6.38;2.78;;;;;;;;;;5067900;28;20021;-67
2021/09/03 14:28:57;;;;;;;6.07;3.00;;;;;;;;;;5052432;28;20636;-67
2021/09/03 14:31:23;;;;;;;5.53;2.60;;;;;;;;;;5052535;28;20077;-67
2021/09/03 14:33:49;;;;;;;4.80;2.30;;;;;;;;;;5052397;28;20065;-66
2021/09/03 14:36:15;;;;;;;8.60;2.90;;;;;;;;;;5069607;28;20032;-66
2021/09/03 14:38:41;;;;;;;4.50;2.38;;;;;;;;;;5072469;28;20020;-66
2021/09/03 14:41:08;;;;;;;6.53;2.60;;;;;;;;;;5072374;28;20020;-67
2021/09/03 14:43:35;;;;;;;6.18;2.30;;;;;;;;;;5072203;28;20115;-66
2021/09/03 14:46:01;;;;;;;4.18;2.50;;;;;;;;;;5072230;28;20020;-67